Observations for BRIZE NORTON RA, United Kingdom (EGVN)

EGVN 200550Z 36002KT CAVOK 06/05 Q1031 TEMPO 7000 HZ
EGVN 200550Z 36002KT CAVOK 06/05 Q1031 BLU TEMPO 7000 HZ WHT
EGVN 200439Z 31002KT CAVOK 07/05 Q1031 NOSIG
EGVN 200439Z 31002KT CAVOK 07/05 Q1031 BLU NOSIG
EGVN 200350Z 09001KT CAVOK 07/04 Q1031 NOSIG
EGVN 200350Z 09001KT CAVOK 07/04 Q1031 BLACKBLU NOSIG
EGVN 200250Z 04002KT CAVOK 07/05 Q1031 NOSIG
EGVN 200250Z 04002KT CAVOK 07/05 Q1031 BLACKBLU NOSIG
EGVN 200150Z 08002KT CAVOK 08/05 Q1031 NOSIG
EGVN 200150Z 08002KT CAVOK 08/05 Q1031 BLACKBLU NOSIG
EGVN 200050Z 35002KT CAVOK 09/06 Q1031 BLACKBLU NOSIG   
EGVN 200050Z 35002KT CAVOK 09/06 Q1031 NOSIG
EGVN 192350Z 04004KT CAVOK 11/06 Q1031 NOSIG
EGVN 192350Z 04004KT CAVOK 11/06 Q1031 BLACKBLU NOSIG
EGVN 192250Z 05004KT CAVOK 13/06 Q1031 NOSIG
EGVN 192250Z 05004KT CAVOK 13/06 Q1031 BLACKBLU NOSIG
EGVN 192150Z 08004KT CAVOK 14/07 Q1031 NOSIG
EGVN 192150Z 08004KT CAVOK 14/07 Q1031 BLACKBLU NOSIG
EGVN 192050Z 04006KT CAVOK 16/07 Q1030 NOSIG
EGVN 192050Z 04006KT CAVOK 16/07 Q1030 BLACKBLU NOSIG
EGVN 191950Z 04005KT CAVOK 16/07 Q1030 BLACKBLU NOSIG   
EGVN 191950Z 04005KT CAVOK 16/07 Q1030 NOSIG
EGVN 191850Z 03005KT CAVOK 19/07 Q1029 NOSIG
EGVN 191850Z 03005KT CAVOK 19/07 Q1029 BLACKBLU NOSIG
EGVN 191750Z 09005KT CAVOK 20/07 Q1029 BLU NOSIG
EGVN 191803Z 05005KT CAVOK 20/08 Q1029 BLACKBLU NOSIG
EGVN 191750Z 09005KT CAVOK 20/07 Q1029 NOSIG
EGVN 191650Z 08009KT CAVOK 22/07 Q1028 NOSIG
EGVN 191650Z 08009KT CAVOK 22/07 Q1028 BLU NOSIG
EGVN 191550Z 10009KT CAVOK 22/07 Q1028 NOSIG
EGVN 191550Z 10009KT CAVOK 22/07 Q1028 BLU NOSIG
EGVN 191450Z 08011KT CAVOK 22/08 Q1028 NOSIG
EGVN 191450Z 08011KT CAVOK 22/08 Q1028 BLU NOSIG
EGVN 191350Z 09008KT CAVOK 22/08 Q1029 NOSIG
EGVN 191350Z 09008KT CAVOK 22/08 Q1029 BLU NOSIG
EGVN 191250Z 08010KT CAVOK 21/08 Q1029 NOSIG
EGVN 191250Z 08010KT CAVOK 21/08 Q1029 BLU NOSIG
EGVN 191150Z 08009KT CAVOK 20/10 Q1029 BLU NOSIG
EGVN 191150Z 08009KT CAVOK 20/10 Q1029 NOSIG
EGVN 191050Z 07009KT CAVOK 19/08 Q1029 NOSIG
EGVN 191050Z 07009KT CAVOK 19/08 Q1029 BLU NOSIG
EGVN 190950Z 06009KT CAVOK 16/08 Q1029 BLU NOSIG
EGVN 190950Z 06009KT CAVOK 16/08 Q1029 NOSIG
EGVN 190850Z 06006KT CAVOK 15/09 Q1029 NOSIG
EGVN 190850Z 06006KT CAVOK 15/09 Q1029 BLU NOSIG
EGVN 190750Z 07010KT CAVOK 12/08 Q1028 BLU NOSIG
EGVN 190750Z 07010KT CAVOK 12/08 Q1028 NOSIG
EGVN 190650Z 02005KT CAVOK 09/07 Q1028 BLU NOSIG
EGVN 190650Z 02005KT CAVOK 09/07 Q1028 NOSIG
EGVN 190550Z 04005KT 6000 HZ FEW180 08/06 Q1027 NOSIG   
EGVN 190550Z 04005KT 6000 HZ FEW180 08/06 Q1027 WHT NOSIG